Time;durP1;ratioP1;P1;durP2;ratioP2;P2;SDS_P1;SDS_P2;PMS_P1;PMS_P2;Temp;Humidity;BMP_temperature;BMP_pressure;BME280_temperature;BME280_humidity;BME280_pressure;Samples;Min_cycle;Max_cycle;Signal;HPM_P1;HPM_P2
2023/02/09 00:01:00;;;;;;;28.57;15.50;;;-2.50;99.90;;;;;;4972647;28;20643;-69
2023/02/09 00:03:25;;;;;;;25.87;16.73;;;-2.60;99.90;;;;;;4971796;28;20618;-69
2023/02/09 00:05:51;;;;;;;27.80;17.97;;;-2.70;99.90;;;;;;4974602;28;20577;-68
2023/02/09 00:08:16;;;;;;;26.93;18.80;;;-2.70;99.90;;;;;;4975442;28;20232;-69
2023/02/09 00:10:42;;;;;;;25.93;16.80;;;-2.70;99.90;;;;;;4971343;28;20191;-69
2023/02/09 00:13:24;;;;;;;24.57;16.23;;;-2.70;99.90;;;;;;4971692;28;20212;-69
2023/02/09 00:15:52;;;;;;;26.53;16.80;;;-2.80;99.90;;;;;;4969016;28;20195;-68
2023/02/09 00:18:19;;;;;;;24.50;14.17;;;-2.80;99.90;;;;;;4971543;28;20459;-69
2023/02/09 00:20:44;;;;;;;24.37;15.70;;;-2.80;99.90;;;;;;4972323;28;20439;-69
2023/02/09 00:23:10;;;;;;;26.73;17.67;;;-2.80;99.90;;;;;;4971635;28;20466;-69
2023/02/09 00:25:38;;;;;;;25.47;16.73;;;-2.70;99.90;;;;;;4972522;28;20231;-69
2023/02/09 00:28:04;;;;;;;29.77;15.43;;;-2.70;99.90;;;;;;4972006;28;20268;-68
2023/02/09 00:30:30;;;;;;;25.57;16.90;;;-2.70;99.90;;;;;;4973399;28;20442;-70
2023/02/09 00:32:55;;;;;;;24.30;15.17;;;-2.70;99.90;;;;;;4973705;28;20451;-68
2023/02/09 00:35:21;;;;;;;25.40;15.57;;;-2.70;99.90;;;;;;4970883;28;20613;-68
2023/02/09 00:37:46;;;;;;;27.23;16.30;;;-2.80;99.90;;;;;;4972437;28;20267;-68
2023/02/09 00:40:12;;;;;;;25.60;16.07;;;-2.80;99.90;;;;;;4970984;28;20234;-68
2023/02/09 00:42:37;;;;;;;25.63;16.27;;;-2.80;99.90;;;;;;4971496;28;20216;-69
2023/02/09 00:45:03;;;;;;;20.20;15.33;;;-2.80;99.90;;;;;;4971421;28;20184;-68
2023/02/09 00:47:28;;;;;;;22.63;14.17;;;-2.80;99.90;;;;;;4973295;28;20783;-68
2023/02/09 00:49:54;;;;;;;26.30;15.87;;;-2.80;99.90;;;;;;4971063;28;20223;-68
2023/02/09 00:52:19;;;;;;;24.67;17.10;;;-2.80;99.90;;;;;;4971026;28;20178;-68
2023/02/09 00:54:45;;;;;;;23.60;15.03;;;-2.80;99.90;;;;;;4970576;28;20188;-69
2023/02/09 00:57:10;;;;;;;23.90;15.57;;;-2.90;99.90;;;;;;4971423;28;20184;-68
2023/02/09 00:59:39;;;;;;;27.23;19.87;;;-2.90;99.90;;;;;;4975602;28;20750;-68
2023/02/09 01:02:05;;;;;;;32.00;19.77;;;-2.90;99.90;;;;;;4975935;28;20207;-68
2023/02/09 01:04:31;;;;;;;25.73;18.10;;;-2.90;99.90;;;;;;4977196;28;20439;-68
2023/02/09 01:06:56;;;;;;;28.50;17.70;;;-2.90;99.90;;;;;;4974869;28;21003;-69
2023/02/09 01:09:23;;;;;;;26.83;18.90;;;-2.90;99.90;;;;;;4974448;28;20199;-68
2023/02/09 01:11:48;;;;;;;29.40;17.40;;;-2.90;99.90;;;;;;4976017;28;20184;-68
2023/02/09 01:14:14;;;;;;;29.47;18.20;;;-2.90;99.90;;;;;;4975564;28;20443;-68
2023/02/09 01:16:39;;;;;;;29.67;17.60;;;-3.00;99.90;;;;;;4975435;28;20210;-68
2023/02/09 01:19:05;;;;;;;23.93;16.20;;;-3.00;99.90;;;;;;4975537;28;20215;-68
2023/02/09 01:21:31;;;;;;;34.47;18.43;;;-3.00;99.90;;;;;;4979804;28;20264;-68
2023/02/09 01:23:57;;;;;;;27.63;19.50;;;-3.00;99.90;;;;;;4976089;28;20184;-68
2023/02/09 01:26:23;;;;;;;47.93;22.60;;;-3.10;99.90;;;;;;4974398;28;20212;-68
2023/02/09 01:28:50;;;;;;;41.73;20.33;;;-3.10;99.90;;;;;;4972941;28;20462;-68
2023/02/09 01:31:22;;;;;;;29.70;18.07;;;-3.10;99.90;;;;;;4973858;28;20449;-68
2023/02/09 01:33:48;;;;;;;29.10;18.30;;;-3.10;99.90;;;;;;4971637;28;20481;-68
2023/02/09 01:36:13;;;;;;;23.13;17.03;;;-3.10;99.90;;;;;;4974369;28;20467;-68
2023/02/09 01:38:39;;;;;;;33.17;17.13;;;-3.10;99.90;;;;;;4973784;28;20208;-68
2023/02/09 01:41:04;;;;;;;30.80;19.57;;;-3.10;99.90;;;;;;4977460;28;20184;-68
2023/02/09 01:43:47;;;;;;;27.70;16.00;;;-3.10;99.90;;;;;;4975518;28;20187;-68
2023/02/09 01:46:13;;;;;;;28.67;17.60;;;-3.10;99.90;;;;;;4968324;28;20211;-68
2023/02/09 01:48:38;;;;;;;30.50;19.00;;;-3.10;99.90;;;;;;4973359;28;20550;-68
2023/02/09 01:51:04;;;;;;;29.33;17.10;;;-3.20;99.90;;;;;;4974302;28;20724;-69
2023/02/09 01:53:31;;;;;;;33.10;18.47;;;-3.20;99.90;;;;;;4972470;28;20235;-68
2023/02/09 01:56:06;;;;;;;28.77;18.40;;;-3.30;99.90;;;;;;4975527;28;20286;-68
2023/02/09 01:58:32;;;;;;;23.80;15.37;;;-3.40;99.90;;;;;;4971639;28;20459;-68
2023/02/09 02:00:58;;;;;;;27.70;16.20;;;-3.40;99.90;;;;;;4977537;28;20426;-68
2023/02/09 02:03:26;;;;;;;26.83;17.00;;;-3.40;99.90;;;;;;4981537;28;20442;-69
2023/02/09 02:05:57;;;;;;;31.07;18.57;;;-3.40;99.90;;;;;;4974495;28;20204;-68
2023/02/09 02:08:29;;;;;;;27.07;18.07;;;-3.40;99.90;;;;;;4973966;28;20455;-69
2023/02/09 02:10:55;;;;;;;25.23;15.97;;;-3.40;99.90;;;;;;4974314;28;20514;-69
2023/02/09 02:13:20;;;;;;;27.77;17.83;;;-3.40;99.90;;;;;;4972075;28;20436;-68
2023/02/09 02:16:04;;;;;;;24.60;17.90;;;-3.40;99.90;;;;;;4975295;28;20518;-68
2023/02/09 02:18:59;;;;;;;31.63;17.10;;;-3.40;99.90;;;;;;4974622;28;20686;-68
2023/02/09 02:22:02;;;;;;;26.60;16.77;;;-3.50;99.90;;;;;;4974747;28;20444;-68
2023/02/09 02:25:01;;;;;;;31.53;17.07;;;-3.50;99.90;;;;;;4969275;28;20598;-68
2023/02/09 02:27:37;;;;;;;31.13;17.80;;;-3.50;99.90;;;;;;4975287;28;20463;-68
2023/02/09 02:30:16;;;;;;;32.77;17.93;;;-3.50;99.90;;;;;;4972893;28;21059;-68
2023/02/09 02:32:56;;;;;;;31.83;18.97;;;-3.50;99.90;;;;;;4978091;28;20867;-68
2023/02/09 02:35:36;;;;;;;34.87;17.87;;;-3.50;99.90;;;;;;4974206;28;20980;-68
2023/02/09 02:38:37;;;;;;;27.60;17.60;;;-3.40;99.90;;;;;;4973157;28;20856;-68
2023/02/09 02:41:19;;;;;;;25.10;16.23;;;-3.40;99.90;;;;;;4973890;28;20442;-68
2023/02/09 02:43:58;;;;;;;29.30;15.87;;;-3.30;99.90;;;;;;4970683;28;20428;-68
2023/02/09 02:46:47;;;;;;;28.03;17.90;;;-3.30;99.90;;;;;;4974647;28;20549;-69
2023/02/09 02:49:21;;;;;;;25.00;17.00;;;-3.40;99.90;;;;;;4968692;28;20474;-68
2023/02/09 02:51:50;;;;;;;27.83;16.50;;;-3.40;99.90;;;;;;4974715;28;20573;-68
2023/02/09 02:54:26;;;;;;;26.00;17.73;;;-3.40;99.90;;;;;;4973372;28;20434;-68
2023/02/09 02:57:15;;;;;;;26.27;17.97;;;-3.40;99.90;;;;;;4973593;28;20443;-68
2023/02/09 02:59:46;;;;;;;36.50;18.60;;;-3.40;99.90;;;;;;4970638;28;20804;-68
2023/02/09 03:02:21;;;;;;;28.83;16.93;;;-3.40;99.90;;;;;;4969820;28;20454;-69
2023/02/09 03:04:50;;;;;;;27.67;18.20;;;-3.50;99.90;;;;;;4971400;28;20450;-68
2023/02/09 03:07:16;;;;;;;26.47;16.43;;;-3.50;99.90;;;;;;4974411;28;20478;-68
2023/02/09 03:09:54;;;;;;;31.60;17.73;;;-3.60;99.90;;;;;;4972258;28;20534;-68
2023/02/09 03:12:20;;;;;;;29.23;18.60;;;-3.70;99.90;;;;;;4974117;28;20436;-68
2023/02/09 03:15:13;;;;;;;26.83;18.63;;;-3.70;99.90;;;;;;4971610;28;20435;-68
2023/02/09 03:18:09;;;;;;;41.87;18.80;;;-3.70;99.90;;;;;;4973166;28;20178;-68
2023/02/09 03:20:41;;;;;;;32.33;18.50;;;-3.70;99.90;;;;;;4960838;28;20487;-68
2023/02/09 03:23:15;;;;;;;32.50;17.80;;;-3.70;99.90;;;;;;4972308;28;20467;-68
2023/02/09 03:25:44;;;;;;;33.13;20.33;;;-3.70;99.90;;;;;;4972607;28;20961;-68
2023/02/09 03:28:23;;;;;;;28.93;18.67;;;-3.60;99.90;;;;;;4965589;28;20455;-69
2023/02/09 03:30:49;;;;;;;35.17;17.33;;;-3.60;99.90;;;;;;4973102;28;20434;-68
2023/02/09 03:33:20;;;;;;;32.03;17.60;;;-3.60;99.90;;;;;;4971978;28;20450;-69
2023/02/09 03:35:50;;;;;;;31.20;18.73;;;-3.60;99.90;;;;;;4972007;28;20435;-68
2023/02/09 03:38:16;;;;;;;31.20;17.23;;;-3.70;99.90;;;;;;4972070;28;20455;-68
2023/02/09 03:40:42;;;;;;;32.33;17.83;;;-3.70;99.90;;;;;;4973718;28;20475;-68
2023/02/09 03:43:10;;;;;;;25.20;16.93;;;-3.70;99.90;;;;;;4973568;28;20211;-68
2023/02/09 03:45:35;;;;;;;34.23;18.70;;;-3.70;99.90;;;;;;4972904;28;20463;-69
2023/02/09 03:48:01;;;;;;;33.60;18.70;;;-3.60;99.90;;;;;;4973103;28;20443;-68
2023/02/09 03:50:28;;;;;;;26.63;17.37;;;-3.70;99.90;;;;;;4972031;28;20651;-69
2023/02/09 03:52:54;;;;;;;33.20;18.20;;;-3.70;99.90;;;;;;4972530;28;20642;-68
2023/02/09 03:55:19;;;;;;;35.97;18.07;;;-3.80;99.90;;;;;;4971258;28;20546;-69
2023/02/09 03:57:51;;;;;;;27.73;18.37;;;-3.90;99.90;;;;;;4972691;28;20182;-68
2023/02/09 04:00:17;;;;;;;34.90;18.90;;;-3.90;99.90;;;;;;4971005;28;20180;-68
2023/02/09 04:02:43;;;;;;;32.67;18.33;;;-3.90;99.90;;;;;;4973286;28;20515;-68
2023/02/09 04:05:09;;;;;;;42.23;21.40;;;-3.90;99.90;;;;;;4972283;28;20960;-68
2023/02/09 04:07:34;;;;;;;36.47;20.63;;;-3.90;99.90;;;;;;4972438;28;20606;-68
2023/02/09 04:10:00;;;;;;;33.60;19.77;;;-3.80;99.90;;;;;;4971583;28;20494;-68
2023/02/09 04:12:26;;;;;;;29.10;18.93;;;-3.80;99.90;;;;;;4972695;28;20188;-69
2023/02/09 04:14:51;;;;;;;30.50;19.20;;;-3.80;99.90;;;;;;4972944;28;20200;-68
2023/02/09 04:17:17;;;;;;;35.23;22.10;;;-3.80;99.90;;;;;;4971935;28;20184;-68
2023/02/09 04:19:42;;;;;;;30.27;20.53;;;-3.80;99.90;;;;;;4969542;28;20282;-69
2023/02/09 04:22:08;;;;;;;25.47;17.10;;;-3.70;99.90;;;;;;4974455;28;20267;-68
2023/02/09 04:24:34;;;;;;;32.10;19.47;;;-3.70;99.90;;;;;;4971351;28;20477;-68
2023/02/09 04:26:59;;;;;;;31.20;19.17;;;-3.70;99.90;;;;;;4969161;28;20463;-68
2023/02/09 04:29:25;;;;;;;36.73;21.50;;;-3.70;99.90;;;;;;4970983;28;20203;-68
2023/02/09 04:31:51;;;;;;;29.73;19.57;;;-3.70;99.90;;;;;;4973841;28;20693;-68
2023/02/09 04:34:17;;;;;;;35.70;20.33;;;-3.70;99.90;;;;;;4970049;28;20180;-69
2023/02/09 04:36:42;;;;;;;29.03;19.60;;;-3.70;99.90;;;;;;4969875;28;20647;-68
2023/02/09 04:39:08;;;;;;;29.60;18.10;;;-3.70;99.90;;;;;;4969155;28;20685;-69
2023/02/09 04:41:34;;;;;;;28.23;18.47;;;-3.70;99.90;;;;;;4970680;28;20270;-69
2023/02/09 04:43:59;;;;;;;31.17;18.70;;;-3.70;99.90;;;;;;4971090;28;20191;-68
2023/02/09 04:46:25;;;;;;;32.23;20.37;;;-3.70;99.90;;;;;;4971223;28;20215;-69
2023/02/09 04:48:50;;;;;;;34.10;20.60;;;-3.70;99.90;;;;;;4969916;28;20204;-68
2023/02/09 04:51:16;;;;;;;32.63;21.50;;;-3.70;99.90;;;;;;4972182;28;20180;-68
2023/02/09 04:53:42;;;;;;;30.23;19.33;;;-3.70;99.90;;;;;;4972839;28;20184;-68
2023/02/09 04:56:08;;;;;;;33.87;19.50;;;-3.70;99.90;;;;;;4969127;28;20685;-68
2023/02/09 05:01:20;;;;;;;35.87;20.23;;;-3.80;99.90;;;;;;4973977;28;20567;-68
2023/02/09 05:03:46;;;;;;;30.67;18.90;;;-3.90;99.90;;;;;;4966246;28;20444;-68
2023/02/09 05:06:11;;;;;;;26.57;18.67;;;-4.00;99.90;;;;;;4970038;28;20471;-69
2023/02/09 05:08:37;;;;;;;33.20;19.70;;;-4.00;99.90;;;;;;4970661;28;20203;-68
2023/02/09 05:11:02;;;;;;;28.13;18.80;;;-4.00;99.90;;;;;;4970717;28;20176;-68
2023/02/09 05:13:28;;;;;;;34.13;21.20;;;-4.10;99.90;;;;;;4972344;28;20681;-69
2023/02/09 05:15:54;;;;;;;35.43;18.93;;;-4.00;99.90;;;;;;4972879;28;20247;-68
2023/02/09 05:18:20;;;;;;;39.70;20.60;;;-4.10;99.90;;;;;;4972188;28;20443;-69
2023/02/09 05:20:46;;;;;;;33.73;18.97;;;-4.10;99.90;;;;;;4973009;28;20231;-69
2023/02/09 05:23:12;;;;;;;35.23;19.87;;;-4.10;99.90;;;;;;4973064;28;20933;-69
2023/02/09 05:25:38;;;;;;;32.57;19.40;;;-4.10;99.90;;;;;;4972802;28;20200;-69
2023/02/09 05:28:03;;;;;;;39.33;21.90;;;-4.10;99.90;;;;;;4972884;28;20172;-69
2023/02/09 05:30:30;;;;;;;39.47;21.07;;;-4.10;99.90;;;;;;4972226;28;20196;-69
2023/02/09 05:32:56;;;;;;;34.20;20.93;;;-4.10;99.90;;;;;;4972912;28;20591;-69
2023/02/09 05:35:21;;;;;;;34.27;19.30;;;-4.10;99.90;;;;;;4972880;28;20420;-69
2023/02/09 05:37:47;;;;;;;33.83;21.10;;;-4.10;99.90;;;;;;4972901;28;20486;-69
2023/02/09 05:40:12;;;;;;;33.10;20.93;;;-4.00;99.90;;;;;;4971984;28;20245;-69
2023/02/09 05:42:38;;;;;;;35.93;20.67;;;-4.00;99.90;;;;;;4972749;28;20168;-69
2023/02/09 05:45:04;;;;;;;40.03;21.47;;;-4.10;99.90;;;;;;4973885;28;20164;-68
2023/02/09 05:47:29;;;;;;;30.97;19.60;;;-4.10;99.90;;;;;;4976604;28;20705;-68
2023/02/09 05:49:55;;;;;;;31.53;19.93;;;-4.10;99.90;;;;;;4975680;28;20191;-69
2023/02/09 05:52:21;;;;;;;33.00;19.53;;;-4.10;99.90;;;;;;4976419;28;20223;-69
2023/02/09 05:54:47;;;;;;;32.43;20.03;;;-4.10;99.90;;;;;;4976084;28;20180;-68
2023/02/09 05:57:13;;;;;;;37.23;21.37;;;-4.10;99.90;;;;;;4976278;28;20184;-69
2023/02/09 05:59:38;;;;;;;33.60;21.47;;;-4.10;99.90;;;;;;4975558;28;20908;-69
2023/02/09 06:02:04;;;;;;;34.40;19.50;;;-4.10;99.90;;;;;;4976230;28;20662;-68
2023/02/09 06:04:29;;;;;;;36.53;22.17;;;-4.20;99.90;;;;;;4976265;28;20185;-69
2023/02/09 06:06:55;;;;;;;32.13;19.23;;;-4.20;99.90;;;;;;4976009;28;20208;-68
2023/02/09 06:09:21;;;;;;;35.03;20.90;;;-4.20;99.90;;;;;;4975202;28;20680;-69
2023/02/09 06:11:47;;;;;;;36.30;23.07;;;-4.20;99.90;;;;;;4976155;28;20842;-69
2023/02/09 06:14:13;;;;;;;33.43;20.70;;;-4.30;99.90;;;;;;4975780;28;20177;-69
2023/02/09 06:16:39;;;;;;;35.17;20.40;;;-4.30;99.90;;;;;;4975925;28;20192;-69
2023/02/09 06:19:06;;;;;;;37.97;24.10;;;-4.30;99.90;;;;;;4975041;28;20197;-68
2023/02/09 06:21:31;;;;;;;33.67;19.00;;;-4.30;99.90;;;;;;4975715;28;20559;-68
2023/02/09 06:23:57;;;;;;;35.50;22.20;;;-4.30;99.90;;;;;;4975674;28;20981;-68
2023/02/09 06:26:22;;;;;;;31.60;20.77;;;-4.30;99.90;;;;;;4975661;28;20215;-68
2023/02/09 06:28:48;;;;;;;33.17;20.43;;;-4.30;99.90;;;;;;4974836;28;20188;-69
2023/02/09 06:31:13;;;;;;;31.47;21.13;;;-4.40;99.90;;;;;;4975774;28;20303;-68
2023/02/09 06:33:39;;;;;;;34.93;23.37;;;-4.40;99.90;;;;;;4975636;28;20172;-68
2023/02/09 06:36:06;;;;;;;40.50;21.37;;;-4.40;99.90;;;;;;4975456;28;20181;-69
2023/02/09 06:38:32;;;;;;;33.90;20.50;;;-4.30;99.90;;;;;;4974678;28;20239;-68
2023/02/09 06:40:58;;;;;;;37.00;21.83;;;-4.30;99.90;;;;;;4975423;28;20865;-68
2023/02/09 06:43:24;;;;;;;30.03;20.53;;;-4.30;99.90;;;;;;4974149;28;20496;-69
2023/02/09 06:45:50;;;;;;;36.73;22.13;;;-4.30;99.90;;;;;;4975374;28;20460;-69
2023/02/09 06:48:15;;;;;;;39.80;21.77;;;-4.30;99.90;;;;;;4974778;28;20192;-68
2023/02/09 06:50:40;;;;;;;42.10;23.27;;;-4.40;99.90;;;;;;4975294;28;20563;-69
2023/02/09 06:53:06;;;;;;;53.03;28.67;;;-4.30;99.90;;;;;;4975136;28;20268;-68
2023/02/09 06:55:32;;;;;;;39.00;24.47;;;-4.30;99.90;;;;;;4974911;28;20207;-68
2023/02/09 06:57:58;;;;;;;38.27;23.23;;;-4.30;99.90;;;;;;4975018;28;20164;-69
2023/02/09 07:00:25;;;;;;;43.40;24.10;;;-4.20;99.90;;;;;;4974445;28;20416;-68
2023/02/09 07:02:50;;;;;;;39.27;24.80;;;-4.20;99.90;;;;;;4975112;28;20934;-68
2023/02/09 07:05:16;;;;;;;35.10;22.60;;;-4.20;99.90;;;;;;4975058;28;20412;-69
2023/02/09 07:07:43;;;;;;;39.53;23.40;;;-4.10;99.90;;;;;;4974864;28;20230;-68
2023/02/09 07:10:11;;;;;;;38.83;24.30;;;-4.00;99.90;;;;;;4974165;28;20517;-68
2023/02/09 07:12:36;;;;;;;35.77;23.77;;;-3.90;99.90;;;;;;4974853;28;20415;-68
2023/02/09 07:15:02;;;;;;;41.57;25.23;;;-3.90;99.90;;;;;;4974790;28;20415;-70
2023/02/09 07:17:29;;;;;;;33.53;23.53;;;-3.80;99.90;;;;;;4974777;28;20183;-69
2023/02/09 07:19:55;;;;;;;38.63;23.13;;;-3.70;99.90;;;;;;4973912;28;20438;-68
2023/02/09 07:22:21;;;;;;;44.50;25.27;;;-3.50;99.90;;;;;;4974549;28;20420;-69
2023/02/09 07:24:47;;;;;;;34.77;23.77;;;-3.20;99.90;;;;;;4974640;28;20420;-69
2023/02/09 07:27:13;;;;;;;42.53;24.43;;;-2.90;99.90;;;;;;4974669;28;20841;-69
2023/02/09 07:29:38;;;;;;;42.00;25.37;;;-2.60;99.90;;;;;;4973516;28;20502;-69
2023/02/09 07:32:05;;;;;;;41.23;24.60;;;-2.40;99.90;;;;;;4974524;28;20191;-69
2023/02/09 07:34:31;;;;;;;42.47;24.40;;;-2.10;99.90;;;;;;4974494;28;20168;-69
2023/02/09 07:36:57;;;;;;;41.60;24.47;;;-1.70;99.90;;;;;;4974343;28;20431;-69
2023/02/09 07:39:22;;;;;;;37.00;24.60;;;-1.40;99.90;;;;;;4973477;28;20263;-69
2023/02/09 07:41:48;;;;;;;37.33;23.63;;;-1.10;99.90;;;;;;4974527;28;20269;-68
2023/02/09 07:44:13;;;;;;;40.40;25.23;;;-0.90;99.90;;;;;;4974265;28;20603;-69
2023/02/09 07:46:39;;;;;;;36.40;23.03;;;-0.80;99.90;;;;;;4974108;28;20710;-68
2023/02/09 07:49:04;;;;;;;37.73;22.83;;;-0.50;99.90;;;;;;4973378;28;20226;-68
2023/02/09 07:51:30;;;;;;;39.97;23.57;;;-0.30;99.90;;;;;;4973958;28;20219;-68
2023/02/09 07:53:58;;;;;;;38.13;23.60;;;-0.10;99.90;;;;;;4973965;28;20179;-68
2023/02/09 07:56:25;;;;;;;37.27;23.30;;;0.20;99.90;;;;;;4973863;28;20198;-68
2023/02/09 07:58:50;;;;;;;37.30;23.73;;;0.50;99.90;;;;;;4973334;28;20933;-68
2023/02/09 08:01:16;;;;;;;37.23;25.17;;;0.80;99.90;;;;;;4973845;28;20431;-68
2023/02/09 08:03:44;;;;;;;36.37;23.40;;;0.90;99.90;;;;;;4973898;28;20180;-68
2023/02/09 08:06:21;;;;;;;42.83;25.27;;;0.80;99.90;;;;;;4973632;28;20495;-68
2023/02/09 08:08:49;;;;;;;39.33;26.00;;;0.80;99.90;;;;;;4972443;28;21015;-68
2023/02/09 08:11:23;;;;;;;37.47;24.00;;;1.00;99.90;;;;;;4973735;28;20416;-69
2023/02/09 08:13:50;;;;;;;36.70;24.40;;;1.10;99.90;;;;;;4973757;28;20428;-68
2023/02/09 08:16:19;;;;;;;39.90;25.83;;;1.40;99.90;;;;;;4973628;28;20434;-68
2023/02/09 08:19:11;;;;;;;40.70;24.77;;;1.60;99.90;;;;;;4972751;28;20546;-68
2023/02/09 08:21:40;;;;;;;43.47;25.70;;;2.00;99.90;;;;;;4967939;28;20445;-68
2023/02/09 08:24:06;;;;;;;47.33;24.47;;;2.40;99.90;;;;;;4973554;28;20429;-68
2023/02/09 08:26:32;;;;;;;37.53;25.43;;;2.70;99.90;;;;;;4973458;28;20837;-68
2023/02/09 08:28:58;;;;;;;37.30;25.50;;;2.70;99.90;;;;;;4972538;28;20451;-68
2023/02/09 08:31:23;;;;;;;36.47;25.80;;;3.50;99.90;;;;;;4972168;28;20184;-68
2023/02/09 08:33:50;;;;;;;37.90;25.70;;;3.50;99.90;;;;;;4973572;28;20172;-68
2023/02/09 08:36:17;;;;;;;36.50;25.20;;;3.40;99.90;;;;;;4973379;28;20176;-68
2023/02/09 08:38:43;;;;;;;35.77;24.43;;;3.40;99.90;;;;;;4972717;28;20506;-68
2023/02/09 08:41:12;;;;;;;32.03;26.20;;;4.10;99.90;;;;;;4973346;28;20424;-68
2023/02/09 08:43:38;;;;;;;33.33;25.67;;;4.50;99.90;;;;;;4973363;28;20183;-68
2023/02/09 08:46:10;;;;;;;32.23;24.80;;;5.00;99.90;;;;;;4973297;28;20471;-68
2023/02/09 08:48:41;;;;;;;38.87;26.20;;;4.80;99.90;;;;;;4972571;28;20196;-69
2023/02/09 08:51:07;;;;;;;38.37;27.10;;;4.30;99.90;;;;;;4973271;28;20427;-68
2023/02/09 08:53:33;;;;;;;36.43;25.53;;;4.20;99.90;;;;;;4973199;28;20424;-68
2023/02/09 08:55:59;;;;;;;35.60;26.87;;;4.50;99.90;;;;;;4973036;28;20455;-69
2023/02/09 08:58:26;;;;;;;38.93;27.50;;;4.70;99.90;;;;;;4972600;28;20668;-68
2023/02/09 09:00:55;;;;;;;37.13;26.93;;;4.50;99.90;;;;;;4973120;28;20180;-69
2023/02/09 09:03:22;;;;;;;39.10;25.27;;;4.80;99.90;;;;;;4973043;28;20427;-68
2023/02/09 09:05:47;;;;;;;34.63;25.20;;;5.20;99.90;;;;;;4972898;28;20518;-69
2023/02/09 09:08:13;;;;;;;37.23;26.97;;;6.10;99.90;;;;;;4972278;28;20439;-69
2023/02/09 09:10:38;;;;;;;34.83;24.80;;;7.00;96.80;;;;;;4972905;28;20173;-69
2023/02/09 09:13:04;;;;;;;44.17;28.50;;;7.40;94.70;;;;;;4972945;28;20177;-69
2023/02/09 09:15:29;;;;;;;31.80;26.90;;;7.40;93.10;;;;;;4973152;28;20184;-69
2023/02/09 09:17:55;;;;;;;33.63;27.90;;;7.70;94.50;;;;;;4972945;28;20259;-68
2023/02/09 09:20:21;;;;;;;38.00;27.40;;;8.40;90.10;;;;;;4973651;28;20222;-69
2023/02/09 09:22:47;;;;;;;40.40;26.47;;;8.90;88.80;;;;;;4976686;28;20168;-68
2023/02/09 09:25:12;;;;;;;32.23;27.00;;;8.80;85.40;;;;;;4976653;28;20493;-69
2023/02/09 09:27:37;;;;;;;31.40;25.70;;;9.90;81.40;;;;;;4976620;28;20288;-68
2023/02/09 09:30:04;;;;;;;34.00;27.67;;;9.90;81.20;;;;;;4976120;28;20196;-68
2023/02/09 09:32:29;;;;;;;36.03;27.77;;;10.70;77.70;;;;;;4976357;28;20173;-69
2023/02/09 09:34:57;;;;;;;32.30;27.10;;;11.30;72.70;;;;;;4976515;28;20933;-69
2023/02/09 09:37:24;;;;;;;33.17;28.20;;;12.00;67.80;;;;;;4976442;28;20247;-69
2023/02/09 09:39:50;;;;;;;32.50;28.87;;;12.20;66.80;;;;;;4975691;28;20518;-69
2023/02/09 09:42:31;;;;;;;32.80;29.17;;;12.60;63.80;;;;;;4976355;28;20447;-69
2023/02/09 09:44:56;;;;;;;33.97;30.27;;;12.80;61.10;;;;;;4976524;28;20514;-69
2023/02/09 09:47:35;;;;;;;37.10;29.70;;;12.20;60.40;;;;;;4976284;28;21061;-68
2023/02/09 09:50:04;;;;;;;32.17;27.17;;;12.00;61.60;;;;;;4975520;28;20439;-69
2023/02/09 09:52:35;;;;;;;34.13;29.40;;;12.10;60.40;;;;;;4976137;28;20435;-69
2023/02/09 09:55:04;;;;;;;31.30;27.50;;;11.60;62.50;;;;;;4976029;28;20458;-69
2023/02/09 09:57:30;;;;;;;34.33;30.37;;;12.20;60.40;;;;;;4976083;28;20499;-69
2023/02/09 09:59:56;;;;;;;32.57;29.13;;;12.90;58.90;;;;;;4975352;28;20443;-69
2023/02/09 10:02:31;;;;;;;32.13;28.73;;;12.30;58.70;;;;;;4976096;28;20439;-69
2023/02/09 10:05:22;;;;;;;32.87;28.10;;;11.90;58.40;;;;;;4975962;28;20422;-68
2023/02/09 10:07:59;;;;;;;34.13;28.80;;;11.50;59.50;;;;;;4976036;28;20463;-69
2023/02/09 10:10:39;;;;;;;35.00;27.83;;;13.70;57.20;;;;;;4975338;28;20415;-66
2023/02/09 10:13:19;;;;;;;33.53;29.40;;;14.80;53.80;;;;;;4975903;28;21072;-66
2023/02/09 10:15:50;;;;;;;31.57;28.13;;;14.30;53.10;;;;;;4976093;28;20415;-66
2023/02/09 10:18:17;;;;;;;34.53;29.73;;;14.50;52.80;;;;;;4975014;28;20439;-66
2023/02/09 10:20:48;;;;;;;31.47;26.90;;;13.20;54.40;;;;;;4975857;28;20425;-69
2023/02/09 10:23:18;;;;;;;31.93;28.60;;;14.70;52.50;;;;;;4975858;28;20420;-69
2023/02/09 10:25:52;;;;;;;30.93;27.63;;;15.70;49.70;;;;;;4975692;28;20521;-67
2023/02/09 10:28:24;;;;;;;35.20;31.40;;;16.60;48.50;;;;;;4975004;28;20505;-66
2023/02/09 10:30:52;;;;;;;34.20;28.90;;;17.10;47.50;;;;;;4975072;28;20422;-66
2023/02/09 10:33:18;;;;;;;32.33;28.47;;;16.80;44.50;;;;;;4975519;28;20435;-70
2023/02/09 10:35:50;;;;;;;30.50;27.30;;;17.30;44.60;;;;;;4975512;28;20450;-69
2023/02/09 10:38:18;;;;;;;31.83;28.50;;;18.60;42.90;;;;;;4974591;28;20494;-67
2023/02/09 10:40:46;;;;;;;32.57;29.33;;;18.70;41.10;;;;;;4975323;28;20459;-66
2023/02/09 10:43:21;;;;;;;29.23;26.43;;;17.90;40.90;;;;;;4975325;28;20435;-66
2023/02/09 10:45:54;;;;;;;32.87;29.53;;;18.20;40.40;;;;;;4975210;28;20519;-66
2023/02/09 10:48:21;;;;;;;32.10;28.77;;;18.20;40.50;;;;;;4974582;28;20452;-67
2023/02/09 10:51:10;;;;;;;29.83;26.73;;;18.60;40.00;;;;;;4975180;28;20426;-67
2023/02/09 10:53:54;;;;;;;29.47;26.60;;;19.30;38.70;;;;;;4975182;28;20470;-67
2023/02/09 10:56:25;;;;;;;32.30;27.50;;;19.20;39.60;;;;;;4975503;28;20950;-66
2023/02/09 10:59:12;;;;;;;30.67;27.77;;;20.50;37.60;;;;;;4974464;28;20466;-66
2023/02/09 11:01:40;;;;;;;31.87;28.67;;;20.20;36.30;;;;;;4975265;28;20430;-66
2023/02/09 11:04:19;;;;;;;31.47;28.27;;;18.50;37.30;;;;;;4974956;28;20428;-66
2023/02/09 11:07:05;;;;;;;32.87;29.47;;;19.60;37.60;;;;;;4974865;28;20463;-66
2023/02/09 11:09:36;;;;;;;31.70;27.60;;;17.80;37.00;;;;;;4974327;28;20455;-66
2023/02/09 11:12:02;;;;;;;28.80;25.70;;;18.80;37.40;;;;;;4974864;28;20463;-66
2023/02/09 11:14:28;;;;;;;29.13;26.23;;;19.00;36.80;;;;;;4974765;28;20506;-66
2023/02/09 11:17:10;;;;;;;31.73;27.60;;;20.00;35.80;;;;;;4974693;28;20176;-66
2023/02/09 11:20:05;;;;;;;30.00;27.20;;;19.10;35.20;;;;;;4974247;28;20877;-66
2023/02/09 11:22:46;;;;;;;31.50;28.50;;;19.70;35.10;;;;;;4974651;28;20427;-69
2023/02/09 11:25:17;;;;;;;30.37;27.47;;;19.20;34.90;;;;;;4974552;28;20494;-69
2023/02/09 11:28:01;;;;;;;29.70;26.63;;;20.10;35.00;;;;;;4973387;28;20550;-66
2023/02/09 11:30:46;;;;;;;30.77;27.60;;;20.40;34.20;;;;;;4974115;28;20412;-69
2023/02/09 11:33:24;;;;;;;29.47;26.33;;;20.10;35.00;;;;;;4974391;28;20462;-66
2023/02/09 11:36:11;;;;;;;28.97;26.03;;;19.50;34.90;;;;;;4974437;28;20445;-66
2023/02/09 11:38:49;;;;;;;29.10;26.20;;;19.80;34.60;;;;;;4974180;28;20973;-66
2023/02/09 11:44:14;;;;;;;28.73;25.93;;;19.40;35.30;;;;;;4973917;28;20463;-66
2023/02/09 11:46:41;;;;;;;28.37;25.57;;;19.20;35.00;;;;;;4974226;28;20459;-66
2023/02/09 11:49:15;;;;;;;29.00;26.23;;;20.20;34.30;;;;;;4973654;28;20490;-66
2023/02/09 11:51:43;;;;;;;28.83;26.17;;;19.70;34.20;;;;;;4974243;28;20419;-66
2023/02/09 11:54:22;;;;;;;31.07;27.07;;;18.90;35.20;;;;;;4972970;28;20420;-66
2023/02/09 11:56:51;;;;;;;29.20;26.00;;;18.50;34.70;;;;;;4974067;28;20443;-66
2023/02/09 11:59:20;;;;;;;31.80;28.60;;;18.80;36.20;;;;;;4973407;28;20432;-66
2023/02/09 12:02:33;;;;;;;27.77;24.80;;;17.70;36.00;;;;;;4973883;28;20844;-66
2023/02/09 12:05:00;;;;;;;29.57;26.70;;;18.30;36.40;;;;;;4973861;28;20415;-66
2023/02/09 12:07:39;;;;;;;32.13;26.33;;;17.40;36.50;;;;;;4973781;28;20550;-66
2023/02/09 12:10:16;;;;;;;29.93;26.90;;;18.50;35.70;;;;;;4973186;28;20851;-67
2023/02/09 12:12:53;;;;;;;28.07;25.13;;;17.80;35.80;;;;;;4973663;28;20424;-67
2023/02/09 12:15:25;;;;;;;28.43;25.57;;;19.20;35.70;;;;;;4973758;28;20412;-67
2023/02/09 12:17:56;;;;;;;28.23;25.40;;;21.00;34.00;;;;;;4973842;28;20784;-67
2023/02/09 12:20:24;;;;;;;26.27;23.63;;;21.00;33.10;;;;;;4973164;28;20856;-67
2023/02/09 12:23:01;;;;;;;28.13;25.13;;;21.90;42.90;;;;;;4973584;28;20420;-67
2023/02/09 12:25:47;;;;;;;27.30;24.30;;;21.50;42.80;;;;;;4973589;28;20893;-67
2023/02/09 12:28:23;;;;;;;26.90;24.00;;;20.20;44.00;;;;;;4971623;28;20529;-66
2023/02/09 12:30:48;;;;;;;26.30;23.77;;;20.80;44.60;;;;;;4973612;28;20905;-67
2023/02/09 12:33:14;;;;;;;25.47;23.10;;;20.70;43.70;;;;;;4973619;28;20461;-67
2023/02/09 12:35:58;;;;;;;26.80;24.20;;;20.80;44.80;;;;;;4973625;28;20547;-67
2023/02/09 12:38:24;;;;;;;27.60;24.83;;;21.70;44.10;;;;;;4972791;28;20193;-67
2023/02/09 12:41:05;;;;;;;27.63;25.03;;;23.00;43.80;;;;;;4973429;28;20425;-67
2023/02/09 12:43:32;;;;;;;27.00;24.60;;;23.20;42.90;;;;;;4973321;28;20180;-67
2023/02/09 12:46:15;;;;;;;27.90;25.03;;;24.30;29.10;;;;;;4973328;28;20467;-67